sensor_id;sensor_type;location;lat;lon;timestamp;P1;durP1;ratioP1;P2;durP2;ratioP2
40649;SDS011;26342;42.826;23.992;2022-12-29T00:01:34;13.13;;;2.08;;
40649;SDS011;26342;42.826;23.992;2022-12-29T00:04:00;2.15;;;1.67;;
40649;SDS011;26342;42.826;23.992;2022-12-29T00:06:26;1.25;;;1.15;;
40649;SDS011;26342;42.826;23.992;2022-12-29T00:08:51;1.65;;;1.52;;
40649;SDS011;26342;42.826;23.992;2022-12-29T00:11:18;4.03;;;2.17;;
40649;SDS011;26342;42.826;23.992;2022-12-29T00:13:48;3.05;;;2.47;;
40649;SDS011;26342;42.826;23.992;2022-12-29T00:16:32;4.72;;;2.38;;
40649;SDS011;26342;42.826;23.992;2022-12-29T00:18:59;1.83;;;1.45;;
40649;SDS011;26342;42.826;23.992;2022-12-29T00:21:25;4.05;;;2.78;;
40649;SDS011;26342;42.826;23.992;2022-12-29T00:24:15;5.07;;;3.97;;
40649;SDS011;26342;42.826;23.992;2022-12-29T00:26:58;5.90;;;3.58;;
40649;SDS011;26342;42.826;23.992;2022-12-29T00:29:47;7.88;;;2.28;;
40649;SDS011;26342;42.826;23.992;2022-12-29T00:32:32;6.68;;;1.83;;
40649;SDS011;26342;42.826;23.992;2022-12-29T00:35:24;6.70;;;1.80;;
40649;SDS011;26342;42.826;23.992;2022-12-29T00:37:50;0.55;;;0.55;;
40649;SDS011;26342;42.826;23.992;2022-12-29T00:40:35;1.63;;;1.15;;
40649;SDS011;26342;42.826;23.992;2022-12-29T00:43:19;2.90;;;2.08;;
40649;SDS011;26342;42.826;23.992;2022-12-29T00:46:03;3.05;;;2.47;;
40649;SDS011;26342;42.826;23.992;2022-12-29T00:48:28;1.70;;;1.15;;
40649;SDS011;26342;42.826;23.992;2022-12-29T00:51:12;2.35;;;1.25;;
40649;SDS011;26342;42.826;23.992;2022-12-29T00:53:38;3.85;;;1.58;;
40649;SDS011;26342;42.826;23.992;2022-12-29T00:56:03;0.77;;;0.77;;
40649;SDS011;26342;42.826;23.992;2022-12-29T00:58:29;2.97;;;2.13;;
40649;SDS011;26342;42.826;23.992;2022-12-29T01:01:05;7.35;;;2.03;;
40649;SDS011;26342;42.826;23.992;2022-12-29T01:03:32;3.70;;;2.40;;
40649;SDS011;26342;42.826;23.992;2022-12-29T01:06:03;1.42;;;1.15;;
40649;SDS011;26342;42.826;23.992;2022-12-29T01:08:30;1.60;;;1.50;;
40649;SDS011;26342;42.826;23.992;2022-12-29T01:10:59;3.60;;;1.73;;
40649;SDS011;26342;42.826;23.992;2022-12-29T01:13:26;7.00;;;3.55;;
40649;SDS011;26342;42.826;23.992;2022-12-29T01:15:51;4.88;;;4.03;;
40649;SDS011;26342;42.826;23.992;2022-12-29T01:18:17;4.75;;;3.42;;
40649;SDS011;26342;42.826;23.992;2022-12-29T01:20:43;5.05;;;2.60;;
40649;SDS011;26342;42.826;23.992;2022-12-29T01:23:08;3.35;;;3.05;;
40649;SDS011;26342;42.826;23.992;2022-12-29T01:25:34;3.65;;;2.88;;
40649;SDS011;26342;42.826;23.992;2022-12-29T01:27:59;3.83;;;3.53;;
40649;SDS011;26342;42.826;23.992;2022-12-29T01:30:24;5.45;;;4.28;;
40649;SDS011;26342;42.826;23.992;2022-12-29T01:32:50;1.83;;;1.60;;
40649;SDS011;26342;42.826;23.992;2022-12-29T01:35:15;3.13;;;1.02;;
40649;SDS011;26342;42.826;23.992;2022-12-29T01:37:41;9.07;;;2.72;;
40649;SDS011;26342;42.826;23.992;2022-12-29T01:40:06;4.88;;;1.75;;
40649;SDS011;26342;42.826;23.992;2022-12-29T01:42:32;2.95;;;1.27;;
40649;SDS011;26342;42.826;23.992;2022-12-29T01:45:10;5.47;;;2.97;;
40649;SDS011;26342;42.826;23.992;2022-12-29T01:47:53;7.68;;;2.15;;
40649;SDS011;26342;42.826;23.992;2022-12-29T01:50:28;3.40;;;2.00;;
40649;SDS011;26342;42.826;23.992;2022-12-29T01:55:29;1.38;;;1.15;;
40649;SDS011;26342;42.826;23.992;2022-12-29T01:57:57;2.97;;;1.85;;
40649;SDS011;26342;42.826;23.992;2022-12-29T02:00:28;1.00;;;0.57;;
40649;SDS011;26342;42.826;23.992;2022-12-29T02:02:54;1.17;;;0.95;;
40649;SDS011;26342;42.826;23.992;2022-12-29T02:07:49;2.40;;;1.70;;
40649;SDS011;26342;42.826;23.992;2022-12-29T02:10:17;2.60;;;1.95;;
40649;SDS011;26342;42.826;23.992;2022-12-29T02:12:46;1.60;;;1.50;;
40649;SDS011;26342;42.826;23.992;2022-12-29T02:15:12;1.25;;;1.15;;
40649;SDS011;26342;42.826;23.992;2022-12-29T02:23:30;1.08;;;0.70;;
40649;SDS011;26342;42.826;23.992;2022-12-29T02:26:11;0.70;;;0.68;;
40649;SDS011;26342;42.826;23.992;2022-12-29T02:28:53;1.23;;;0.63;;
40649;SDS011;26342;42.826;23.992;2022-12-29T02:32:00;1.75;;;0.75;;
40649;SDS011;26342;42.826;23.992;2022-12-29T02:37:27;0.75;;;0.25;;
40649;SDS011;26342;42.826;23.992;2022-12-29T02:40:18;0.20;;;0.20;;
40649;SDS011;26342;42.826;23.992;2022-12-29T02:45:22;6.20;;;2.75;;
40649;SDS011;26342;42.826;23.992;2022-12-29T02:50:40;1.48;;;1.20;;
40649;SDS011;26342;42.826;23.992;2022-12-29T02:53:15;5.15;;;2.05;;
40649;SDS011;26342;42.826;23.992;2022-12-29T02:56:04;6.05;;;2.63;;
40649;SDS011;26342;42.826;23.992;2022-12-29T02:58:29;2.42;;;2.10;;
40649;SDS011;26342;42.826;23.992;2022-12-29T03:09:06;4.00;;;2.65;;
40649;SDS011;26342;42.826;23.992;2022-12-29T03:11:52;5.05;;;3.45;;
40649;SDS011;26342;42.826;23.992;2022-12-29T03:14:33;6.45;;;4.30;;
40649;SDS011;26342;42.826;23.992;2022-12-29T03:17:27;4.95;;;2.85;;
40649;SDS011;26342;42.826;23.992;2022-12-29T03:20:01;3.47;;;2.05;;
40649;SDS011;26342;42.826;23.992;2022-12-29T03:22:32;5.55;;;2.95;;
40649;SDS011;26342;42.826;23.992;2022-12-29T03:27:50;3.15;;;2.72;;
40649;SDS011;26342;42.826;23.992;2022-12-29T03:30:20;2.90;;;2.42;;
40649;SDS011;26342;42.826;23.992;2022-12-29T03:32:50;2.58;;;1.95;;
40649;SDS011;26342;42.826;23.992;2022-12-29T03:35:20;17.30;;;6.35;;
40649;SDS011;26342;42.826;23.992;2022-12-29T03:37:51;7.85;;;3.08;;
40649;SDS011;26342;42.826;23.992;2022-12-29T03:40:23;9.90;;;4.00;;
40649;SDS011;26342;42.826;23.992;2022-12-29T03:42:49;5.95;;;2.85;;
40649;SDS011;26342;42.826;23.992;2022-12-29T03:45:16;4.45;;;2.88;;
40649;SDS011;26342;42.826;23.992;2022-12-29T03:47:41;4.28;;;1.92;;
40649;SDS011;26342;42.826;23.992;2022-12-29T03:50:06;3.30;;;2.05;;
40649;SDS011;26342;42.826;23.992;2022-12-29T03:52:33;2.08;;;1.90;;
40649;SDS011;26342;42.826;23.992;2022-12-29T03:54:59;3.50;;;2.03;;
40649;SDS011;26342;42.826;23.992;2022-12-29T03:57:24;1.25;;;1.23;;
40649;SDS011;26342;42.826;23.992;2022-12-29T03:59:50;0.63;;;0.63;;
40649;SDS011;26342;42.826;23.992;2022-12-29T04:02:15;1.77;;;1.33;;
40649;SDS011;26342;42.826;23.992;2022-12-29T04:04:41;1.98;;;1.77;;
40649;SDS011;26342;42.826;23.992;2022-12-29T04:07:06;6.30;;;3.67;;
40649;SDS011;26342;42.826;23.992;2022-12-29T04:09:31;5.10;;;3.33;;
40649;SDS011;26342;42.826;23.992;2022-12-29T04:11:57;3.13;;;2.05;;
40649;SDS011;26342;42.826;23.992;2022-12-29T04:14:22;6.35;;;2.85;;
40649;SDS011;26342;42.826;23.992;2022-12-29T04:16:48;13.32;;;6.40;;
40649;SDS011;26342;42.826;23.992;2022-12-29T04:19:13;5.35;;;4.53;;
40649;SDS011;26342;42.826;23.992;2022-12-29T04:21:38;3.33;;;3.05;;
40649;SDS011;26342;42.826;23.992;2022-12-29T04:24:04;11.07;;;5.20;;
40649;SDS011;26342;42.826;23.992;2022-12-29T04:26:31;11.65;;;3.38;;
40649;SDS011;26342;42.826;23.992;2022-12-29T04:28:57;4.30;;;3.67;;
40649;SDS011;26342;42.826;23.992;2022-12-29T04:31:23;3.72;;;3.42;;
40649;SDS011;26342;42.826;23.992;2022-12-29T04:33:48;4.57;;;3.20;;
40649;SDS011;26342;42.826;23.992;2022-12-29T04:36:14;7.80;;;3.25;;
40649;SDS011;26342;42.826;23.992;2022-12-29T04:38:39;11.82;;;2.75;;
40649;SDS011;26342;42.826;23.992;2022-12-29T04:41:04;4.35;;;2.28;;
40649;SDS011;26342;42.826;23.992;2022-12-29T04:43:30;1.90;;;1.75;;
40649;SDS011;26342;42.826;23.992;2022-12-29T04:45:55;2.88;;;2.55;;
40649;SDS011;26342;42.826;23.992;2022-12-29T04:48:21;5.00;;;2.03;;
40649;SDS011;26342;42.826;23.992;2022-12-29T04:50:49;2.60;;;2.40;;
40649;SDS011;26342;42.826;23.992;2022-12-29T04:53:15;3.65;;;2.13;;
40649;SDS011;26342;42.826;23.992;2022-12-29T04:55:41;4.95;;;2.42;;
40649;SDS011;26342;42.826;23.992;2022-12-29T04:58:07;1.67;;;1.58;;
40649;SDS011;26342;42.826;23.992;2022-12-29T05:00:32;2.28;;;1.98;;
40649;SDS011;26342;42.826;23.992;2022-12-29T05:02:58;6.05;;;3.85;;
40649;SDS011;26342;42.826;23.992;2022-12-29T05:05:24;3.45;;;2.47;;
40649;SDS011;26342;42.826;23.992;2022-12-29T05:07:49;5.60;;;3.70;;
40649;SDS011;26342;42.826;23.992;2022-12-29T05:10:15;4.47;;;1.80;;
40649;SDS011;26342;42.826;23.992;2022-12-29T05:12:40;1.35;;;1.25;;
40649;SDS011;26342;42.826;23.992;2022-12-29T05:15:06;5.47;;;0.90;;
40649;SDS011;26342;42.826;23.992;2022-12-29T05:17:32;0.65;;;0.60;;
40649;SDS011;26342;42.826;23.992;2022-12-29T05:19:58;4.85;;;3.88;;
40649;SDS011;26342;42.826;23.992;2022-12-29T05:22:24;3.13;;;2.83;;
40649;SDS011;26342;42.826;23.992;2022-12-29T05:24:50;4.90;;;3.47;;
40649;SDS011;26342;42.826;23.992;2022-12-29T05:27:15;9.43;;;8.43;;
40649;SDS011;26342;42.826;23.992;2022-12-29T05:29:41;13.32;;;10.00;;
40649;SDS011;26342;42.826;23.992;2022-12-29T05:32:06;14.60;;;11.95;;
40649;SDS011;26342;42.826;23.992;2022-12-29T05:34:31;21.08;;;13.50;;
40649;SDS011;26342;42.826;23.992;2022-12-29T05:36:57;13.55;;;10.40;;
40649;SDS011;26342;42.826;23.992;2022-12-29T05:39:22;19.00;;;8.40;;
40649;SDS011;26342;42.826;23.992;2022-12-29T05:41:48;5.60;;;4.95;;
40649;SDS011;26342;42.826;23.992;2022-12-29T05:44:13;9.13;;;6.07;;
40649;SDS011;26342;42.826;23.992;2022-12-29T05:46:39;6.20;;;4.88;;
40649;SDS011;26342;42.826;23.992;2022-12-29T05:49:05;3.85;;;3.55;;
40649;SDS011;26342;42.826;23.992;2022-12-29T05:51:30;5.45;;;4.97;;
40649;SDS011;26342;42.826;23.992;2022-12-29T05:53:56;5.20;;;3.58;;
40649;SDS011;26342;42.826;23.992;2022-12-29T05:56:21;6.25;;;5.10;;
40649;SDS011;26342;42.826;23.992;2022-12-29T05:58:47;5.40;;;3.90;;
40649;SDS011;26342;42.826;23.992;2022-12-29T06:01:12;5.22;;;3.72;;
40649;SDS011;26342;42.826;23.992;2022-12-29T06:03:38;4.40;;;3.97;;
40649;SDS011;26342;42.826;23.992;2022-12-29T06:06:03;4.88;;;3.13;;
40649;SDS011;26342;42.826;23.992;2022-12-29T06:08:29;8.68;;;4.85;;
40649;SDS011;26342;42.826;23.992;2022-12-29T06:10:54;6.45;;;3.97;;
40649;SDS011;26342;42.826;23.992;2022-12-29T06:13:20;9.68;;;4.70;;
40649;SDS011;26342;42.826;23.992;2022-12-29T06:15:47;6.22;;;5.00;;
40649;SDS011;26342;42.826;23.992;2022-12-29T06:18:13;46.38;;;20.17;;
40649;SDS011;26342;42.826;23.992;2022-12-29T06:20:38;24.67;;;15.82;;
40649;SDS011;26342;42.826;23.992;2022-12-29T06:23:04;20.23;;;10.52;;
40649;SDS011;26342;42.826;23.992;2022-12-29T06:25:29;16.33;;;9.30;;
40649;SDS011;26342;42.826;23.992;2022-12-29T06:27:57;11.45;;;6.18;;
40649;SDS011;26342;42.826;23.992;2022-12-29T06:30:22;8.60;;;5.57;;
40649;SDS011;26342;42.826;23.992;2022-12-29T06:32:48;13.90;;;9.15;;
40649;SDS011;26342;42.826;23.992;2022-12-29T06:35:13;11.57;;;8.02;;
40649;SDS011;26342;42.826;23.992;2022-12-29T06:37:39;2.50;;;2.15;;
40649;SDS011;26342;42.826;23.992;2022-12-29T06:40:04;13.55;;;6.32;;
40649;SDS011;26342;42.826;23.992;2022-12-29T06:42:30;8.40;;;3.88;;
40649;SDS011;26342;42.826;23.992;2022-12-29T06:44:56;13.38;;;6.95;;
40649;SDS011;26342;42.826;23.992;2022-12-29T06:47:23;11.82;;;10.23;;
40649;SDS011;26342;42.826;23.992;2022-12-29T06:49:49;26.75;;;10.32;;
40649;SDS011;26342;42.826;23.992;2022-12-29T06:52:14;9.73;;;7.63;;
40649;SDS011;26342;42.826;23.992;2022-12-29T06:54:40;9.52;;;7.97;;
40649;SDS011;26342;42.826;23.992;2022-12-29T06:57:05;20.20;;;10.25;;
40649;SDS011;26342;42.826;23.992;2022-12-29T06:59:31;10.60;;;6.82;;
40649;SDS011;26342;42.826;23.992;2022-12-29T07:01:56;16.08;;;8.07;;
40649;SDS011;26342;42.826;23.992;2022-12-29T07:04:22;11.68;;;7.22;;
40649;SDS011;26342;42.826;23.992;2022-12-29T07:06:47;18.63;;;8.57;;
40649;SDS011;26342;42.826;23.992;2022-12-29T07:09:12;24.92;;;11.85;;
40649;SDS011;26342;42.826;23.992;2022-12-29T07:11:38;14.48;;;8.15;;
40649;SDS011;26342;42.826;23.992;2022-12-29T07:14:03;11.23;;;6.45;;
40649;SDS011;26342;42.826;23.992;2022-12-29T07:16:29;12.70;;;6.82;;
40649;SDS011;26342;42.826;23.992;2022-12-29T07:18:55;9.63;;;6.55;;
40649;SDS011;26342;42.826;23.992;2022-12-29T07:21:21;10.63;;;9.20;;
40649;SDS011;26342;42.826;23.992;2022-12-29T07:23:46;24.50;;;9.30;;
40649;SDS011;26342;42.826;23.992;2022-12-29T07:26:12;26.45;;;8.52;;
40649;SDS011;26342;42.826;23.992;2022-12-29T07:28:39;15.75;;;9.48;;
40649;SDS011;26342;42.826;23.992;2022-12-29T07:31:05;12.40;;;8.68;;
40649;SDS011;26342;42.826;23.992;2022-12-29T07:33:31;18.13;;;13.57;;
40649;SDS011;26342;42.826;23.992;2022-12-29T07:35:57;26.20;;;14.18;;
40649;SDS011;26342;42.826;23.992;2022-12-29T07:38:23;19.85;;;12.75;;
40649;SDS011;26342;42.826;23.992;2022-12-29T07:40:49;22.55;;;14.35;;
40649;SDS011;26342;42.826;23.992;2022-12-29T07:43:14;20.13;;;13.55;;
40649;SDS011;26342;42.826;23.992;2022-12-29T07:45:40;16.45;;;12.20;;
40649;SDS011;26342;42.826;23.992;2022-12-29T07:48:05;37.45;;;14.63;;
40649;SDS011;26342;42.826;23.992;2022-12-29T07:50:34;25.42;;;16.13;;
40649;SDS011;26342;42.826;23.992;2022-12-29T07:53:01;26.33;;;17.35;;
40649;SDS011;26342;42.826;23.992;2022-12-29T07:55:26;37.22;;;20.23;;
40649;SDS011;26342;42.826;23.992;2022-12-29T07:57:52;37.45;;;20.25;;
40649;SDS011;26342;42.826;23.992;2022-12-29T08:00:19;39.60;;;20.70;;
40649;SDS011;26342;42.826;23.992;2022-12-29T08:02:44;40.90;;;23.48;;
40649;SDS011;26342;42.826;23.992;2022-12-29T08:05:10;62.35;;;31.67;;
40649;SDS011;26342;42.826;23.992;2022-12-29T08:07:35;54.15;;;32.42;;
40649;SDS011;26342;42.826;23.992;2022-12-29T08:10:00;75.88;;;42.35;;
40649;SDS011;26342;42.826;23.992;2022-12-29T08:12:26;79.53;;;42.28;;
40649;SDS011;26342;42.826;23.992;2022-12-29T08:14:52;55.22;;;34.97;;
40649;SDS011;26342;42.826;23.992;2022-12-29T08:17:17;64.15;;;38.13;;
40649;SDS011;26342;42.826;23.992;2022-12-29T08:19:46;56.65;;;37.22;;
40649;SDS011;26342;42.826;23.992;2022-12-29T08:22:12;74.63;;;35.72;;
40649;SDS011;26342;42.826;23.992;2022-12-29T08:24:39;46.20;;;26.42;;
40649;SDS011;26342;42.826;23.992;2022-12-29T08:27:04;35.38;;;21.83;;
40649;SDS011;26342;42.826;23.992;2022-12-29T08:29:30;31.27;;;19.13;;
40649;SDS011;26342;42.826;23.992;2022-12-29T08:31:56;32.80;;;22.48;;
40649;SDS011;26342;42.826;23.992;2022-12-29T08:34:21;49.00;;;28.73;;
40649;SDS011;26342;42.826;23.992;2022-12-29T08:36:46;26.77;;;17.92;;
40649;SDS011;26342;42.826;23.992;2022-12-29T08:39:12;28.08;;;19.17;;
40649;SDS011;26342;42.826;23.992;2022-12-29T08:41:38;41.70;;;17.30;;
40649;SDS011;26342;42.826;23.992;2022-12-29T08:44:03;14.13;;;12.18;;
40649;SDS011;26342;42.826;23.992;2022-12-29T08:46:29;11.85;;;8.88;;
40649;SDS011;26342;42.826;23.992;2022-12-29T08:48:54;12.63;;;6.95;;
40649;SDS011;26342;42.826;23.992;2022-12-29T08:51:19;15.57;;;8.02;;
40649;SDS011;26342;42.826;23.992;2022-12-29T08:53:45;10.43;;;5.93;;
40649;SDS011;26342;42.826;23.992;2022-12-29T08:56:10;10.52;;;7.03;;
40649;SDS011;26342;42.826;23.992;2022-12-29T08:58:36;7.72;;;5.57;;
40649;SDS011;26342;42.826;23.992;2022-12-29T09:01:02;14.10;;;7.03;;
40649;SDS011;26342;42.826;23.992;2022-12-29T09:03:28;7.32;;;6.57;;
40649;SDS011;26342;42.826;23.992;2022-12-29T09:05:54;12.30;;;4.90;;
40649;SDS011;26342;42.826;23.992;2022-12-29T09:08:20;8.43;;;5.05;;
40649;SDS011;26342;42.826;23.992;2022-12-29T09:10:47;3.47;;;3.17;;
40649;SDS011;26342;42.826;23.992;2022-12-29T09:13:13;7.15;;;4.00;;
40649;SDS011;26342;42.826;23.992;2022-12-29T09:15:39;11.38;;;6.65;;
40649;SDS011;26342;42.826;23.992;2022-12-29T09:18:06;3.47;;;2.85;;
40649;SDS011;26342;42.826;23.992;2022-12-29T09:20:33;8.93;;;3.50;;
40649;SDS011;26342;42.826;23.992;2022-12-29T09:22:59;6.43;;;3.30;;
40649;SDS011;26342;42.826;23.992;2022-12-29T09:25:24;3.10;;;2.78;;
40649;SDS011;26342;42.826;23.992;2022-12-29T09:27:50;17.23;;;3.90;;
40649;SDS011;26342;42.826;23.992;2022-12-29T09:30:20;4.45;;;4.15;;
40649;SDS011;26342;42.826;23.992;2022-12-29T09:32:47;5.47;;;3.90;;
40649;SDS011;26342;42.826;23.992;2022-12-29T09:35:13;4.10;;;3.17;;
40649;SDS011;26342;42.826;23.992;2022-12-29T09:37:40;12.27;;;8.18;;
40649;SDS011;26342;42.826;23.992;2022-12-29T09:40:06;9.10;;;5.80;;
40649;SDS011;26342;42.826;23.992;2022-12-29T09:42:44;9.80;;;7.00;;
40649;SDS011;26342;42.826;23.992;2022-12-29T09:55:25;14.75;;;9.05;;
40649;SDS011;26342;42.826;23.992;2022-12-29T09:58:10;9.97;;;8.07;;
40649;SDS011;26342;42.826;23.992;2022-12-29T10:00:47;8.35;;;7.18;;
40649;SDS011;26342;42.826;23.992;2022-12-29T10:03:20;9.02;;;6.72;;
40649;SDS011;26342;42.826;23.992;2022-12-29T10:13:33;3.92;;;2.30;;
40649;SDS011;26342;42.826;23.992;2022-12-29T10:16:31;2.65;;;1.20;;
40649;SDS011;26342;42.826;23.992;2022-12-29T10:22:10;3.22;;;2.08;;
40649;SDS011;26342;42.826;23.992;2022-12-29T10:24:47;2.78;;;2.55;;
40649;SDS011;26342;42.826;23.992;2022-12-29T10:27:16;2.40;;;2.13;;
40649;SDS011;26342;42.826;23.992;2022-12-29T10:29:45;1.70;;;1.60;;
40649;SDS011;26342;42.826;23.992;2022-12-29T10:32:22;3.58;;;2.72;;
40649;SDS011;26342;42.826;23.992;2022-12-29T10:34:50;4.28;;;3.75;;
40649;SDS011;26342;42.826;23.992;2022-12-29T10:37:30;4.55;;;2.45;;
40649;SDS011;26342;42.826;23.992;2022-12-29T10:40:09;3.10;;;2.80;;
40649;SDS011;26342;42.826;23.992;2022-12-29T10:42:42;1.48;;;1.25;;
40649;SDS011;26342;42.826;23.992;2022-12-29T10:45:14;2.13;;;1.65;;
40649;SDS011;26342;42.826;23.992;2022-12-29T10:48:04;2.40;;;1.85;;
40649;SDS011;26342;42.826;23.992;2022-12-29T10:50:34;1.33;;;1.23;;
40649;SDS011;26342;42.826;23.992;2022-12-29T10:53:00;1.13;;;1.05;;
40649;SDS011;26342;42.826;23.992;2022-12-29T10:55:29;2.55;;;1.42;;
40649;SDS011;26342;42.826;23.992;2022-12-29T10:58:01;2.97;;;1.33;;
40649;SDS011;26342;42.826;23.992;2022-12-29T11:00:29;3.15;;;2.33;;
40649;SDS011;26342;42.826;23.992;2022-12-29T11:03:09;2.40;;;1.75;;
40649;SDS011;26342;42.826;23.992;2022-12-29T11:05:55;3.30;;;1.45;;
40649;SDS011;26342;42.826;23.992;2022-12-29T11:08:39;6.20;;;3.85;;
40649;SDS011;26342;42.826;23.992;2022-12-29T11:11:14;3.45;;;2.85;;
40649;SDS011;26342;42.826;23.992;2022-12-29T11:14:02;3.30;;;2.20;;
40649;SDS011;26342;42.826;23.992;2022-12-29T11:16:37;1.25;;;1.15;;
40649;SDS011;26342;42.826;23.992;2022-12-29T11:19:03;2.53;;;2.13;;
40649;SDS011;26342;42.826;23.992;2022-12-29T11:21:35;4.60;;;1.13;;
40649;SDS011;26342;42.826;23.992;2022-12-29T11:24:14;1.88;;;1.33;;
40649;SDS011;26342;42.826;23.992;2022-12-29T11:26:45;2.15;;;1.33;;
40649;SDS011;26342;42.826;23.992;2022-12-29T11:29:16;2.70;;;1.13;;
40649;SDS011;26342;42.826;23.992;2022-12-29T11:31:53;2.63;;;1.73;;
40649;SDS011;26342;42.826;23.992;2022-12-29T11:34:21;6.70;;;2.15;;
40649;SDS011;26342;42.826;23.992;2022-12-29T11:36:53;18.95;;;9.55;;
40649;SDS011;26342;42.826;23.992;2022-12-29T11:40:23;20.52;;;10.60;;
40649;SDS011;26342;42.826;23.992;2022-12-29T11:42:34;3.40;;;2.25;;
40649;SDS011;26342;42.826;23.992;2022-12-29T11:45:06;1.02;;;1.02;;
40649;SDS011;26342;42.826;23.992;2022-12-29T11:47:41;0.65;;;0.65;;
40649;SDS011;26342;42.826;23.992;2022-12-29T11:50:15;2.42;;;2.15;;
40649;SDS011;26342;42.826;23.992;2022-12-29T11:52:46;0.98;;;0.60;;
40649;SDS011;26342;42.826;23.992;2022-12-29T11:55:18;2.88;;;1.38;;
40649;SDS011;26342;42.826;23.992;2022-12-29T11:57:47;4.07;;;2.85;;
40649;SDS011;26342;42.826;23.992;2022-12-29T12:00:14;5.45;;;2.95;;
40649;SDS011;26342;42.826;23.992;2022-12-29T12:02:43;1.83;;;1.55;;
40649;SDS011;26342;42.826;23.992;2022-12-29T12:10:49;1.98;;;1.73;;
40649;SDS011;26342;42.826;23.992;2022-12-29T12:13:27;1.50;;;1.13;;
40649;SDS011;26342;42.826;23.992;2022-12-29T12:18:37;2.33;;;1.80;;
40649;SDS011;26342;42.826;23.992;2022-12-29T12:21:39;1.33;;;0.93;;
40649;SDS011;26342;42.826;23.992;2022-12-29T12:29:45;3.28;;;2.10;;
40649;SDS011;26342;42.826;23.992;2022-12-29T12:32:22;2.50;;;1.15;;
40649;SDS011;26342;42.826;23.992;2022-12-29T12:34:57;2.05;;;1.88;;
40649;SDS011;26342;42.826;23.992;2022-12-29T12:45:45;2.97;;;2.22;;
40649;SDS011;26342;42.826;23.992;2022-12-29T12:48:22;1.65;;;1.42;;
40649;SDS011;26342;42.826;23.992;2022-12-29T12:59:26;0.93;;;0.70;;
40649;SDS011;26342;42.826;23.992;2022-12-29T13:02:21;1.63;;;1.42;;
40649;SDS011;26342;42.826;23.992;2022-12-29T13:10:42;16.20;;;10.13;;
40649;SDS011;26342;42.826;23.992;2022-12-29T13:16:05;2.67;;;1.20;;
40649;SDS011;26342;42.826;23.992;2022-12-29T13:18:50;8.02;;;2.25;;
40649;SDS011;26342;42.826;23.992;2022-12-29T13:30:04;1.60;;;1.50;;
40649;SDS011;26342;42.826;23.992;2022-12-29T13:40:38;4.57;;;2.88;;
40649;SDS011;26342;42.826;23.992;2022-12-29T13:43:09;3.97;;;2.55;;
40649;SDS011;26342;42.826;23.992;2022-12-29T13:45:34;2.70;;;2.28;;
40649;SDS011;26342;42.826;23.992;2022-12-29T13:50:57;4.68;;;1.60;;
40649;SDS011;26342;42.826;23.992;2022-12-29T13:53:35;2.45;;;1.48;;
40649;SDS011;26342;42.826;23.992;2022-12-29T13:56:18;1.45;;;0.95;;
40649;SDS011;26342;42.826;23.992;2022-12-29T13:59:06;1.77;;;1.67;;
40649;SDS011;26342;42.826;23.992;2022-12-29T14:01:43;1.63;;;1.15;;
40649;SDS011;26342;42.826;23.992;2022-12-29T14:04:23;6.40;;;3.83;;
40649;SDS011;26342;42.826;23.992;2022-12-29T14:07:06;1.73;;;1.48;;
40649;SDS011;26342;42.826;23.992;2022-12-29T14:14:45;4.18;;;2.92;;
40649;SDS011;26342;42.826;23.992;2022-12-29T14:17:11;10.30;;;2.05;;
40649;SDS011;26342;42.826;23.992;2022-12-29T14:19:39;8.20;;;2.75;;
40649;SDS011;26342;42.826;23.992;2022-12-29T14:22:07;4.22;;;1.95;;
40649;SDS011;26342;42.826;23.992;2022-12-29T14:34:49;3.00;;;2.28;;
40649;SDS011;26342;42.826;23.992;2022-12-29T14:37:34;1.75;;;1.45;;
40649;SDS011;26342;42.826;23.992;2022-12-29T14:40:17;3.38;;;1.60;;
40649;SDS011;26342;42.826;23.992;2022-12-29T14:42:51;3.88;;;2.13;;
40649;SDS011;26342;42.826;23.992;2022-12-29T14:47:49;1.00;;;0.73;;
40649;SDS011;26342;42.826;23.992;2022-12-29T14:50:17;4.47;;;1.80;;
40649;SDS011;26342;42.826;23.992;2022-12-29T14:52:46;3.22;;;2.05;;
40649;SDS011;26342;42.826;23.992;2022-12-29T14:57:41;11.93;;;7.15;;
40649;SDS011;26342;42.826;23.992;2022-12-29T15:02:38;28.70;;;13.13;;
40649;SDS011;26342;42.826;23.992;2022-12-29T15:05:31;4.25;;;3.38;;
40649;SDS011;26342;42.826;23.992;2022-12-29T15:07:57;5.97;;;3.83;;
40649;SDS011;26342;42.826;23.992;2022-12-29T15:10:23;4.65;;;1.95;;
40649;SDS011;26342;42.826;23.992;2022-12-29T15:12:53;2.53;;;1.55;;
40649;SDS011;26342;42.826;23.992;2022-12-29T15:15:21;2.85;;;1.52;;
40649;SDS011;26342;42.826;23.992;2022-12-29T15:17:47;2.35;;;1.55;;
40649;SDS011;26342;42.826;23.992;2022-12-29T15:20:33;5.53;;;2.40;;
40649;SDS011;26342;42.826;23.992;2022-12-29T15:23:02;6.40;;;3.17;;
40649;SDS011;26342;42.826;23.992;2022-12-29T15:25:34;3.20;;;1.70;;
40649;SDS011;26342;42.826;23.992;2022-12-29T15:28:02;2.67;;;1.25;;
40649;SDS011;26342;42.826;23.992;2022-12-29T15:30:31;11.57;;;2.60;;
40649;SDS011;26342;42.826;23.992;2022-12-29T15:32:57;3.25;;;1.67;;
40649;SDS011;26342;42.826;23.992;2022-12-29T15:37:59;1.13;;;1.05;;
40649;SDS011;26342;42.826;23.992;2022-12-29T15:40:29;3.92;;;2.00;;
40649;SDS011;26342;42.826;23.992;2022-12-29T15:43:08;6.30;;;3.92;;
40649;SDS011;26342;42.826;23.992;2022-12-29T15:45:37;2.65;;;1.88;;
40649;SDS011;26342;42.826;23.992;2022-12-29T15:48:03;50.55;;;23.30;;
40649;SDS011;26342;42.826;23.992;2022-12-29T15:50:31;54.83;;;23.98;;
40649;SDS011;26342;42.826;23.992;2022-12-29T15:52:59;18.10;;;10.07;;
40649;SDS011;26342;42.826;23.992;2022-12-29T15:55:35;7.82;;;4.15;;
40649;SDS011;26342;42.826;23.992;2022-12-29T15:58:04;8.65;;;3.60;;
40649;SDS011;26342;42.826;23.992;2022-12-29T16:00:45;4.07;;;2.97;;
40649;SDS011;26342;42.826;23.992;2022-12-29T16:03:12;6.60;;;4.13;;
40649;SDS011;26342;42.826;23.992;2022-12-29T16:05:40;5.25;;;3.50;;
40649;SDS011;26342;42.826;23.992;2022-12-29T16:11:02;1.85;;;1.33;;
40649;SDS011;26342;42.826;23.992;2022-12-29T16:13:34;2.33;;;2.13;;
40649;SDS011;26342;42.826;23.992;2022-12-29T16:18:59;5.97;;;3.70;;
40649;SDS011;26342;42.826;23.992;2022-12-29T16:21:32;4.75;;;2.33;;
40649;SDS011;26342;42.826;23.992;2022-12-29T16:24:02;5.45;;;4.60;;
40649;SDS011;26342;42.826;23.992;2022-12-29T16:26:32;3.45;;;2.75;;
40649;SDS011;26342;42.826;23.992;2022-12-29T16:28:58;3.47;;;2.08;;
40649;SDS011;26342;42.826;23.992;2022-12-29T16:31:36;4.60;;;2.67;;
40649;SDS011;26342;42.826;23.992;2022-12-29T16:34:26;3.92;;;2.55;;
40649;SDS011;26342;42.826;23.992;2022-12-29T16:41:56;7.55;;;3.70;;
40649;SDS011;26342;42.826;23.992;2022-12-29T16:44:22;8.63;;;3.63;;
40649;SDS011;26342;42.826;23.992;2022-12-29T16:46:57;6.93;;;4.22;;
40649;SDS011;26342;42.826;23.992;2022-12-29T16:49:25;6.40;;;5.43;;
40649;SDS011;26342;42.826;23.992;2022-12-29T16:51:52;5.18;;;4.70;;
40649;SDS011;26342;42.826;23.992;2022-12-29T16:54:24;11.20;;;5.15;;
40649;SDS011;26342;42.826;23.992;2022-12-29T16:56:58;4.78;;;3.83;;
40649;SDS011;26342;42.826;23.992;2022-12-29T16:59:34;2.20;;;1.55;;
40649;SDS011;26342;42.826;23.992;2022-12-29T17:02:06;3.10;;;2.80;;
40649;SDS011;26342;42.826;23.992;2022-12-29T17:04:38;7.45;;;2.80;;
40649;SDS011;26342;42.826;23.992;2022-12-29T17:07:07;12.60;;;6.03;;
40649;SDS011;26342;42.826;23.992;2022-12-29T17:09:52;7.60;;;4.30;;
40649;SDS011;26342;42.826;23.992;2022-12-29T17:12:28;8.68;;;3.33;;